sensor_id;sensor_type;location;lat;lon;timestamp;pressure;altitude;pressure_sealevel;temperature;humidity
24558;BME280;12726;49.148;8.582;2023-05-25T00:02:08;100851.06;;;10.37;66.89
24558;BME280;12726;49.148;8.582;2023-05-25T00:04:58;100851.25;;;10.36;67.14
24558;BME280;12726;49.148;8.582;2023-05-25T00:07:44;100845.00;;;10.29;67.56
24558;BME280;12726;49.148;8.582;2023-05-25T00:10:29;100849.75;;;10.27;68.02
24558;BME280;12726;49.148;8.582;2023-05-25T00:13:14;100853.06;;;10.22;68.12
24558;BME280;12726;49.148;8.582;2023-05-25T00:16:01;100855.09;;;10.20;68.43
24558;BME280;12726;49.148;8.582;2023-05-25T00:18:46;100848.00;;;10.12;68.60
24558;BME280;12726;49.148;8.582;2023-05-25T00:21:32;100863.69;;;10.09;69.03
24558;BME280;12726;49.148;8.582;2023-05-25T00:24:21;100851.03;;;10.03;69.16
24558;BME280;12726;49.148;8.582;2023-05-25T00:27:06;100852.00;;;9.95;70.31
24558;BME280;12726;49.148;8.582;2023-05-25T00:29:51;100850.31;;;9.88;71.45
24558;BME280;12726;49.148;8.582;2023-05-25T00:32:38;100846.97;;;9.79;72.19
24558;BME280;12726;49.148;8.582;2023-05-25T00:35:24;100849.19;;;9.75;72.34
24558;BME280;12726;49.148;8.582;2023-05-25T00:38:11;100850.00;;;9.69;72.47
24558;BME280;12726;49.148;8.582;2023-05-25T00:40:57;100847.31;;;9.69;72.00
24558;BME280;12726;49.148;8.582;2023-05-25T00:43:43;100839.03;;;9.71;72.10
24558;BME280;12726;49.148;8.582;2023-05-25T00:46:30;100848.31;;;9.68;71.92
24558;BME280;12726;49.148;8.582;2023-05-25T00:49:20;100847.69;;;9.66;71.53
24558;BME280;12726;49.148;8.582;2023-05-25T00:52:05;100849.56;;;9.66;71.38
24558;BME280;12726;49.148;8.582;2023-05-25T00:54:53;100853.28;;;9.65;71.08
24558;BME280;12726;49.148;8.582;2023-05-25T00:57:40;100849.94;;;9.63;71.03
24558;BME280;12726;49.148;8.582;2023-05-25T01:00:29;100847.03;;;9.58;71.03
24558;BME280;12726;49.148;8.582;2023-05-25T01:03:20;100848.91;;;9.64;71.06
24558;BME280;12726;49.148;8.582;2023-05-25T01:06:14;100844.31;;;9.58;71.03
24558;BME280;12726;49.148;8.582;2023-05-25T01:09:02;100854.19;;;9.51;71.45
24558;BME280;12726;49.148;8.582;2023-05-25T01:11:49;100856.44;;;9.47;71.62
24558;BME280;12726;49.148;8.582;2023-05-25T01:14:37;100855.22;;;9.50;71.94
24558;BME280;12726;49.148;8.582;2023-05-25T01:17:23;100853.97;;;9.52;71.71
24558;BME280;12726;49.148;8.582;2023-05-25T01:20:09;100856.47;;;9.54;71.58
24558;BME280;12726;49.148;8.582;2023-05-25T01:22:59;100847.59;;;9.53;71.76
24558;BME280;12726;49.148;8.582;2023-05-25T01:25:50;100860.84;;;9.55;71.63
24558;BME280;12726;49.148;8.582;2023-05-25T01:28:43;100857.84;;;9.43;71.52
24558;BME280;12726;49.148;8.582;2023-05-25T01:31:31;100852.47;;;9.43;71.93
24558;BME280;12726;49.148;8.582;2023-05-25T01:34:18;100860.53;;;9.43;72.34
24558;BME280;12726;49.148;8.582;2023-05-25T01:37:04;100857.22;;;9.41;72.80
24558;BME280;12726;49.148;8.582;2023-05-25T01:39:51;100858.81;;;9.35;72.59
24558;BME280;12726;49.148;8.582;2023-05-25T01:42:36;100852.16;;;9.31;72.96
24558;BME280;12726;49.148;8.582;2023-05-25T01:45:22;100859.31;;;9.24;73.08
24558;BME280;12726;49.148;8.582;2023-05-25T01:48:13;100849.53;;;9.17;73.70
24558;BME280;12726;49.148;8.582;2023-05-25T01:51:04;100860.50;;;9.15;73.84
24558;BME280;12726;49.148;8.582;2023-05-25T01:53:55;100855.06;;;9.09;74.10
24558;BME280;12726;49.148;8.582;2023-05-25T01:56:44;100855.00;;;9.02;74.71
24558;BME280;12726;49.148;8.582;2023-05-25T01:59:31;100845.72;;;9.04;74.67
24558;BME280;12726;49.148;8.582;2023-05-25T02:02:17;100845.66;;;8.98;74.47
24558;BME280;12726;49.148;8.582;2023-05-25T02:05:04;100857.28;;;9.05;74.42
24558;BME280;12726;49.148;8.582;2023-05-25T02:07:49;100861.81;;;9.04;74.66
24558;BME280;12726;49.148;8.582;2023-05-25T02:10:34;100854.16;;;9.01;74.34
24558;BME280;12726;49.148;8.582;2023-05-25T02:13:20;100861.94;;;8.96;74.06
24558;BME280;12726;49.148;8.582;2023-05-25T02:16:06;100856.50;;;8.90;74.44
24558;BME280;12726;49.148;8.582;2023-05-25T02:18:52;100863.94;;;8.88;74.72
24558;BME280;12726;49.148;8.582;2023-05-25T02:21:37;100864.06;;;8.80;74.91
24558;BME280;12726;49.148;8.582;2023-05-25T02:24:23;100851.75;;;8.71;75.39
24558;BME280;12726;49.148;8.582;2023-05-25T02:27:08;100853.72;;;8.62;75.91
24558;BME280;12726;49.148;8.582;2023-05-25T02:29:56;100855.66;;;8.53;76.39
24558;BME280;12726;49.148;8.582;2023-05-25T02:32:41;100853.19;;;8.52;76.49
24558;BME280;12726;49.148;8.582;2023-05-25T02:35:27;100852.56;;;8.50;76.91
24558;BME280;12726;49.148;8.582;2023-05-25T02:38:12;100852.72;;;8.48;76.86
24558;BME280;12726;49.148;8.582;2023-05-25T02:40:58;100857.44;;;8.46;76.92
24558;BME280;12726;49.148;8.582;2023-05-25T02:43:44;100853.50;;;8.42;76.97
24558;BME280;12726;49.148;8.582;2023-05-25T02:46:30;100847.66;;;8.39;76.82
24558;BME280;12726;49.148;8.582;2023-05-25T02:49:16;100847.03;;;8.37;77.08
24558;BME280;12726;49.148;8.582;2023-05-25T02:52:02;100849.88;;;8.35;77.18
24558;BME280;12726;49.148;8.582;2023-05-25T02:54:48;100852.56;;;8.35;77.24
24558;BME280;12726;49.148;8.582;2023-05-25T02:57:33;100845.19;;;8.37;77.19
24558;BME280;12726;49.148;8.582;2023-05-25T03:00:19;100854.69;;;8.40;77.21
24558;BME280;12726;49.148;8.582;2023-05-25T03:03:06;100853.50;;;8.42;77.24
24558;BME280;12726;49.148;8.582;2023-05-25T03:05:51;100845.34;;;8.36;77.05
24558;BME280;12726;49.148;8.582;2023-05-25T03:08:37;100846.91;;;8.30;77.19
24558;BME280;12726;49.148;8.582;2023-05-25T03:11:22;100842.56;;;8.29;77.17
24558;BME280;12726;49.148;8.582;2023-05-25T03:14:08;100855.81;;;8.31;77.29
24558;BME280;12726;49.148;8.582;2023-05-25T03:16:54;100859.78;;;8.35;77.31
24558;BME280;12726;49.148;8.582;2023-05-25T03:19:40;100866.16;;;8.34;77.29
24558;BME280;12726;49.148;8.582;2023-05-25T03:22:27;100871.78;;;8.39;76.76
24558;BME280;12726;49.148;8.582;2023-05-25T03:25:12;100875.22;;;8.33;76.65
24558;BME280;12726;49.148;8.582;2023-05-25T03:27:57;100875.44;;;8.31;77.00
24558;BME280;12726;49.148;8.582;2023-05-25T03:30:43;100873.09;;;8.28;77.35
24558;BME280;12726;49.148;8.582;2023-05-25T03:33:28;100879.84;;;8.24;77.85
24558;BME280;12726;49.148;8.582;2023-05-25T03:36:15;100886.66;;;8.26;77.76
24558;BME280;12726;49.148;8.582;2023-05-25T03:39:01;100874.66;;;8.22;78.26
24558;BME280;12726;49.148;8.582;2023-05-25T03:41:46;100892.22;;;8.25;78.07
24558;BME280;12726;49.148;8.582;2023-05-25T03:44:32;100887.91;;;8.24;78.67
24558;BME280;12726;49.148;8.582;2023-05-25T03:47:17;100891.84;;;8.13;80.62
24558;BME280;12726;49.148;8.582;2023-05-25T03:50:03;100890.28;;;8.04;81.18
24558;BME280;12726;49.148;8.582;2023-05-25T03:52:51;100895.09;;;7.94;82.19
24558;BME280;12726;49.148;8.582;2023-05-25T03:55:36;100889.06;;;7.92;82.66
24558;BME280;12726;49.148;8.582;2023-05-25T03:58:22;100902.31;;;7.94;82.76
24558;BME280;12726;49.148;8.582;2023-05-25T04:01:07;100897.94;;;7.93;83.22
24558;BME280;12726;49.148;8.582;2023-05-25T04:03:54;100901.28;;;7.95;83.11
24558;BME280;12726;49.148;8.582;2023-05-25T04:06:39;100894.25;;;7.94;82.93
24558;BME280;12726;49.148;8.582;2023-05-25T04:09:27;100901.28;;;7.95;82.40
24558;BME280;12726;49.148;8.582;2023-05-25T04:12:12;100900.28;;;7.96;82.05
24558;BME280;12726;49.148;8.582;2023-05-25T04:14:58;100902.56;;;7.99;81.29
24558;BME280;12726;49.148;8.582;2023-05-25T04:17:43;100899.34;;;8.03;81.34
24558;BME280;12726;49.148;8.582;2023-05-25T04:20:28;100904.50;;;8.05;81.19
24558;BME280;12726;49.148;8.582;2023-05-25T04:23:14;100909.97;;;8.11;80.92
24558;BME280;12726;49.148;8.582;2023-05-25T04:26:00;100911.56;;;8.20;80.75
24558;BME280;12726;49.148;8.582;2023-05-25T04:28:46;100920.22;;;8.31;80.25
24558;BME280;12726;49.148;8.582;2023-05-25T04:31:31;100927.50;;;8.37;79.73
24558;BME280;12726;49.148;8.582;2023-05-25T04:34:16;100916.03;;;8.43;79.72
24558;BME280;12726;49.148;8.582;2023-05-25T04:37:04;100911.31;;;8.45;79.61
24558;BME280;12726;49.148;8.582;2023-05-25T04:39:52;100920.47;;;8.50;80.00
24558;BME280;12726;49.148;8.582;2023-05-25T04:42:39;100927.59;;;8.58;79.78
24558;BME280;12726;49.148;8.582;2023-05-25T04:45:24;100921.28;;;8.66;79.38
24558;BME280;12726;49.148;8.582;2023-05-25T04:48:10;100926.75;;;8.72;79.31
24558;BME280;12726;49.148;8.582;2023-05-25T04:50:56;100927.66;;;8.79;79.39
24558;BME280;12726;49.148;8.582;2023-05-25T04:53:45;100928.16;;;8.89;78.15
24558;BME280;12726;49.148;8.582;2023-05-25T04:56:31;100940.28;;;9.00;78.36
24558;BME280;12726;49.148;8.582;2023-05-25T04:59:17;100933.78;;;9.09;78.40
24558;BME280;12726;49.148;8.582;2023-05-25T05:02:03;100940.69;;;9.18;78.42
24558;BME280;12726;49.148;8.582;2023-05-25T05:04:48;100931.69;;;9.26;78.94
24558;BME280;12726;49.148;8.582;2023-05-25T05:07:36;100933.41;;;9.33;80.59
24558;BME280;12726;49.148;8.582;2023-05-25T05:10:22;100930.34;;;9.36;79.72
24558;BME280;12726;49.148;8.582;2023-05-25T05:13:07;100935.00;;;9.49;78.46
24558;BME280;12726;49.148;8.582;2023-05-25T05:15:55;100941.34;;;9.63;76.83
24558;BME280;12726;49.148;8.582;2023-05-25T05:18:41;100939.16;;;9.73;76.09
24558;BME280;12726;49.148;8.582;2023-05-25T05:21:26;100938.75;;;9.76;75.59
24558;BME280;12726;49.148;8.582;2023-05-25T05:24:11;100947.78;;;9.90;75.06
24558;BME280;12726;49.148;8.582;2023-05-25T05:26:56;100943.50;;;10.02;74.48
24558;BME280;12726;49.148;8.582;2023-05-25T05:29:42;100942.56;;;10.16;74.24
24558;BME280;12726;49.148;8.582;2023-05-25T05:32:29;100945.97;;;10.25;73.20
24558;BME280;12726;49.148;8.582;2023-05-25T05:35:14;100955.19;;;10.37;73.51
24558;BME280;12726;49.148;8.582;2023-05-25T05:37:59;100961.25;;;10.52;72.96
24558;BME280;12726;49.148;8.582;2023-05-25T05:40:45;100961.97;;;10.67;71.43
24558;BME280;12726;49.148;8.582;2023-05-25T05:43:30;100970.38;;;10.85;71.20
24558;BME280;12726;49.148;8.582;2023-05-25T05:46:16;100969.41;;;11.06;71.23
24558;BME280;12726;49.148;8.582;2023-05-25T05:49:02;100971.13;;;11.27;70.11
24558;BME280;12726;49.148;8.582;2023-05-25T05:51:48;100971.38;;;11.52;68.36
24558;BME280;12726;49.148;8.582;2023-05-25T05:54:33;100966.63;;;11.73;67.42
24558;BME280;12726;49.148;8.582;2023-05-25T05:57:18;100973.97;;;11.99;66.58
24558;BME280;12726;49.148;8.582;2023-05-25T06:00:05;100970.22;;;12.13;65.39
24558;BME280;12726;49.148;8.582;2023-05-25T06:02:51;100976.22;;;12.35;65.10
24558;BME280;12726;49.148;8.582;2023-05-25T06:05:38;100984.88;;;12.50;64.55
24558;BME280;12726;49.148;8.582;2023-05-25T06:08:23;100979.25;;;12.59;63.31
24558;BME280;12726;49.148;8.582;2023-05-25T06:11:09;100985.22;;;12.87;63.38
24558;BME280;12726;49.148;8.582;2023-05-25T06:13:54;100982.66;;;13.05;61.42
24558;BME280;12726;49.148;8.582;2023-05-25T06:16:39;100987.06;;;13.44;59.69
24558;BME280;12726;49.148;8.582;2023-05-25T06:19:26;100982.69;;;13.50;60.47
24558;BME280;12726;49.148;8.582;2023-05-25T06:22:12;100990.78;;;13.81;59.01
24558;BME280;12726;49.148;8.582;2023-05-25T06:24:58;100994.88;;;14.15;58.49
24558;BME280;12726;49.148;8.582;2023-05-25T06:27:44;100989.19;;;14.66;56.44
24558;BME280;12726;49.148;8.582;2023-05-25T06:30:29;100988.75;;;15.06;55.51
24558;BME280;12726;49.148;8.582;2023-05-25T06:33:14;100996.06;;;15.35;54.85
24558;BME280;12726;49.148;8.582;2023-05-25T06:35:59;100991.91;;;15.92;53.79
24558;BME280;12726;49.148;8.582;2023-05-25T06:38:46;100992.06;;;16.56;51.72
24558;BME280;12726;49.148;8.582;2023-05-25T06:41:32;100997.50;;;16.91;50.52
24558;BME280;12726;49.148;8.582;2023-05-25T06:44:17;100994.16;;;17.12;49.20
24558;BME280;12726;49.148;8.582;2023-05-25T06:47:03;100990.47;;;17.46;47.57
24558;BME280;12726;49.148;8.582;2023-05-25T06:49:48;100989.66;;;17.34;48.49
24558;BME280;12726;49.148;8.582;2023-05-25T06:52:33;100992.69;;;17.78;46.78
24558;BME280;12726;49.148;8.582;2023-05-25T06:55:20;100983.56;;;18.17;45.95
24558;BME280;12726;49.148;8.582;2023-05-25T06:58:06;100994.66;;;18.49;45.02
24558;BME280;12726;49.148;8.582;2023-05-25T07:00:51;100990.16;;;18.76;44.36
24558;BME280;12726;49.148;8.582;2023-05-25T07:03:36;100983.34;;;18.96;43.22
24558;BME280;12726;49.148;8.582;2023-05-25T07:06:22;100978.97;;;19.16;42.44
24558;BME280;12726;49.148;8.582;2023-05-25T07:09:07;100983.47;;;19.06;42.42
24558;BME280;12726;49.148;8.582;2023-05-25T07:11:54;100976.69;;;18.87;43.25
24558;BME280;12726;49.148;8.582;2023-05-25T07:14:40;100967.69;;;19.35;42.39
24558;BME280;12726;49.148;8.582;2023-05-25T07:17:25;100962.19;;;19.30;41.99
24558;BME280;12726;49.148;8.582;2023-05-25T07:20:11;100980.69;;;19.76;41.79
24558;BME280;12726;49.148;8.582;2023-05-25T07:22:57;100965.19;;;20.51;40.79
24558;BME280;12726;49.148;8.582;2023-05-25T07:25:42;100968.66;;;20.41;40.09
24558;BME280;12726;49.148;8.582;2023-05-25T07:28:29;100974.03;;;20.68;39.50
24558;BME280;12726;49.148;8.582;2023-05-25T07:31:15;100970.03;;;20.91;38.99
24558;BME280;12726;49.148;8.582;2023-05-25T07:34:00;100971.22;;;21.10;39.11
24558;BME280;12726;49.148;8.582;2023-05-25T07:36:46;100967.34;;;20.96;38.92
24558;BME280;12726;49.148;8.582;2023-05-25T07:39:31;100969.41;;;21.46;38.17
24558;BME280;12726;49.148;8.582;2023-05-25T07:42:16;100972.19;;;21.61;37.63
24558;BME280;12726;49.148;8.582;2023-05-25T07:45:06;100976.59;;;21.77;37.63
24558;BME280;12726;49.148;8.582;2023-05-25T07:47:51;100982.06;;;21.52;37.88
24558;BME280;12726;49.148;8.582;2023-05-25T07:50:37;100984.31;;;22.21;36.48
24558;BME280;12726;49.148;8.582;2023-05-25T07:53:22;100991.44;;;22.37;37.38
24558;BME280;12726;49.148;8.582;2023-05-25T07:56:08;100990.03;;;22.40;36.87
24558;BME280;12726;49.148;8.582;2023-05-25T07:58:54;100994.31;;;21.29;37.95
24558;BME280;12726;49.148;8.582;2023-05-25T08:01:40;100977.66;;;21.51;37.79
24558;BME280;12726;49.148;8.582;2023-05-25T08:04:26;100995.25;;;21.96;37.30
24558;BME280;12726;49.148;8.582;2023-05-25T08:07:11;100998.75;;;21.56;38.21
24558;BME280;12726;49.148;8.582;2023-05-25T08:09:56;100990.34;;;22.13;37.76
24558;BME280;12726;49.148;8.582;2023-05-25T08:12:41;100993.81;;;22.69;36.31
24558;BME280;12726;49.148;8.582;2023-05-25T08:15:27;100987.38;;;23.14;35.57
24558;BME280;12726;49.148;8.582;2023-05-25T08:18:14;100986.28;;;23.15;35.22
24558;BME280;12726;49.148;8.582;2023-05-25T08:20:59;100980.50;;;23.17;35.07
24558;BME280;12726;49.148;8.582;2023-05-25T08:23:45;100986.31;;;23.05;35.12
24558;BME280;12726;49.148;8.582;2023-05-25T08:26:30;100979.88;;;22.55;36.83
24558;BME280;12726;49.148;8.582;2023-05-25T08:29:18;100973.41;;;23.06;35.51
24558;BME280;12726;49.148;8.582;2023-05-25T08:32:04;100977.22;;;23.15;35.30
24558;BME280;12726;49.148;8.582;2023-05-25T08:34:51;100977.25;;;23.04;35.56
24558;BME280;12726;49.148;8.582;2023-05-25T08:37:36;100978.09;;;23.05;35.23
24558;BME280;12726;49.148;8.582;2023-05-25T08:40:25;100975.31;;;23.10;35.55
24558;BME280;12726;49.148;8.582;2023-05-25T08:43:12;100977.75;;;23.22;35.81
24558;BME280;12726;49.148;8.582;2023-05-25T08:46:02;100985.81;;;23.52;36.05
24558;BME280;12726;49.148;8.582;2023-05-25T08:48:50;100976.13;;;23.11;36.20
24558;BME280;12726;49.148;8.582;2023-05-25T08:51:41;100980.06;;;22.94;36.01
24558;BME280;12726;49.148;8.582;2023-05-25T08:54:29;100984.19;;;22.92;36.52
24558;BME280;12726;49.148;8.582;2023-05-25T08:57:19;100989.44;;;23.42;35.70
24558;BME280;12726;49.148;8.582;2023-05-25T09:00:08;100986.66;;;22.88;35.15
24558;BME280;12726;49.148;8.582;2023-05-25T09:05:46;100986.84;;;23.66;34.54
24558;BME280;12726;49.148;8.582;2023-05-25T09:08:34;100990.59;;;23.80;33.95
24558;BME280;12726;49.148;8.582;2023-05-25T09:11:22;100993.03;;;23.87;34.12
24558;BME280;12726;49.148;8.582;2023-05-25T09:14:07;100989.31;;;24.02;33.70
24558;BME280;12726;49.148;8.582;2023-05-25T09:16:53;100991.66;;;24.18;33.07
24558;BME280;12726;49.148;8.582;2023-05-25T09:19:38;101003.28;;;24.44;32.94
24558;BME280;12726;49.148;8.582;2023-05-25T09:22:24;100987.53;;;24.21;33.61
24558;BME280;12726;49.148;8.582;2023-05-25T09:25:14;100979.03;;;24.46;33.44
24558;BME280;12726;49.148;8.582;2023-05-25T09:28:01;100991.13;;;24.16;32.87
24558;BME280;12726;49.148;8.582;2023-05-25T09:30:46;100997.13;;;24.29;33.05
24558;BME280;12726;49.148;8.582;2023-05-25T09:33:31;100984.19;;;24.53;32.91
24558;BME280;12726;49.148;8.582;2023-05-25T09:36:17;100987.22;;;24.51;33.55
24558;BME280;12726;49.148;8.582;2023-05-25T09:39:04;100982.63;;;24.13;33.63
24558;BME280;12726;49.148;8.582;2023-05-25T09:41:51;100984.09;;;24.63;33.13
24558;BME280;12726;49.148;8.582;2023-05-25T09:44:36;100985.94;;;24.96;32.15
24558;BME280;12726;49.148;8.582;2023-05-25T09:47:21;100988.34;;;25.03;32.26
24558;BME280;12726;49.148;8.582;2023-05-25T09:50:08;100984.00;;;24.15;33.35
24558;BME280;12726;49.148;8.582;2023-05-25T09:52:57;100979.75;;;24.57;32.40
24558;BME280;12726;49.148;8.582;2023-05-25T09:55:42;100977.94;;;24.47;33.23
24558;BME280;12726;49.148;8.582;2023-05-25T09:58:29;100980.69;;;24.47;32.55
24558;BME280;12726;49.148;8.582;2023-05-25T10:01:15;100979.53;;;24.77;32.82
24558;BME280;12726;49.148;8.582;2023-05-25T10:04:00;100977.69;;;25.15;31.61
24558;BME280;12726;49.148;8.582;2023-05-25T10:06:47;100981.03;;;24.93;32.16
24558;BME280;12726;49.148;8.582;2023-05-25T10:09:38;100978.81;;;24.09;33.19
24558;BME280;12726;49.148;8.582;2023-05-25T10:12:24;100980.53;;;24.63;32.76
24558;BME280;12726;49.148;8.582;2023-05-25T10:15:12;100983.56;;;24.61;32.32
24558;BME280;12726;49.148;8.582;2023-05-25T10:18:00;100980.84;;;24.80;32.14
24558;BME280;12726;49.148;8.582;2023-05-25T10:20:47;100979.06;;;25.18;31.33
24558;BME280;12726;49.148;8.582;2023-05-25T10:23:37;100979.59;;;24.96;31.36
24558;BME280;12726;49.148;8.582;2023-05-25T10:26:26;100975.53;;;24.41;32.98
24558;BME280;12726;49.148;8.582;2023-05-25T10:29:12;100971.44;;;24.62;32.83
24558;BME280;12726;49.148;8.582;2023-05-25T10:31:59;100976.97;;;24.33;33.03
24558;BME280;12726;49.148;8.582;2023-05-25T10:34:45;100968.63;;;24.43;33.03
24558;BME280;12726;49.148;8.582;2023-05-25T10:37:32;100962.09;;;24.34;33.29
24558;BME280;12726;49.148;8.582;2023-05-25T10:40:19;100969.28;;;24.30;32.89
24558;BME280;12726;49.148;8.582;2023-05-25T10:43:05;100967.38;;;24.54;32.65
24558;BME280;12726;49.148;8.582;2023-05-25T10:45:50;100962.59;;;24.65;33.98
24558;BME280;12726;49.148;8.582;2023-05-25T10:48:38;100971.81;;;25.03;32.87
24558;BME280;12726;49.148;8.582;2023-05-25T10:51:35;100967.69;;;25.43;31.22
24558;BME280;12726;49.148;8.582;2023-05-25T10:54:21;100965.44;;;25.26;30.83
24558;BME280;12726;49.148;8.582;2023-05-25T10:57:08;100963.59;;;25.59;31.40
24558;BME280;12726;49.148;8.582;2023-05-25T10:59:59;100961.56;;;25.46;31.08
24558;BME280;12726;49.148;8.582;2023-05-25T11:02:49;100957.25;;;25.40;32.28
24558;BME280;12726;49.148;8.582;2023-05-25T11:05:38;100964.31;;;25.27;31.43
24558;BME280;12726;49.148;8.582;2023-05-25T11:08:47;100959.22;;;25.16;31.87
24558;BME280;12726;49.148;8.582;2023-05-25T11:11:59;100966.03;;;25.23;31.07
24558;BME280;12726;49.148;8.582;2023-05-25T11:15:07;100959.66;;;25.04;31.98
24558;BME280;12726;49.148;8.582;2023-05-25T11:17:59;100958.28;;;25.07;31.93
24558;BME280;12726;49.148;8.582;2023-05-25T11:20:46;100961.34;;;25.43;31.19
24558;BME280;12726;49.148;8.582;2023-05-25T11:23:32;100951.88;;;25.11;32.74
24558;BME280;12726;49.148;8.582;2023-05-25T11:26:19;100947.94;;;24.70;31.75
24558;BME280;12726;49.148;8.582;2023-05-25T11:29:12;100947.06;;;24.74;32.02
24558;BME280;12726;49.148;8.582;2023-05-25T11:31:57;100946.72;;;24.81;31.63
24558;BME280;12726;49.148;8.582;2023-05-25T11:34:43;100941.94;;;25.10;31.58
24558;BME280;12726;49.148;8.582;2023-05-25T11:37:31;100943.22;;;25.18;32.65
24558;BME280;12726;49.148;8.582;2023-05-25T11:40:18;100938.41;;;24.86;31.78
24558;BME280;12726;49.148;8.582;2023-05-25T11:43:07;100932.00;;;25.14;31.95
24558;BME280;12726;49.148;8.582;2023-05-25T11:45:54;100936.72;;;25.09;31.05
24558;BME280;12726;49.148;8.582;2023-05-25T11:48:42;100937.34;;;25.24;32.00
24558;BME280;12726;49.148;8.582;2023-05-25T11:51:29;100929.44;;;25.93;32.33
24558;BME280;12726;49.148;8.582;2023-05-25T11:54:22;100938.53;;;25.74;31.50
24558;BME280;12726;49.148;8.582;2023-05-25T11:57:13;100935.94;;;25.83;31.55
24558;BME280;12726;49.148;8.582;2023-05-25T11:59:59;100933.03;;;26.39;30.50
24558;BME280;12726;49.148;8.582;2023-05-25T12:02:49;100935.19;;;26.56;29.73
24558;BME280;12726;49.148;8.582;2023-05-25T12:05:38;100929.66;;;26.29;30.50
24558;BME280;12726;49.148;8.582;2023-05-25T12:08:31;100928.28;;;25.94;31.81
24558;BME280;12726;49.148;8.582;2023-05-25T12:11:18;100930.25;;;25.93;31.31
24558;BME280;12726;49.148;8.582;2023-05-25T12:14:10;100918.09;;;26.54;31.57
24558;BME280;12726;49.148;8.582;2023-05-25T12:16:56;100916.47;;;26.67;30.85
24558;BME280;12726;49.148;8.582;2023-05-25T12:19:41;100919.47;;;26.24;30.48
24558;BME280;12726;49.148;8.582;2023-05-25T12:22:27;100920.34;;;26.66;30.90
24558;BME280;12726;49.148;8.582;2023-05-25T12:25:13;100921.16;;;26.39;30.92
24558;BME280;12726;49.148;8.582;2023-05-25T12:28:10;100914.53;;;25.75;31.99
24558;BME280;12726;49.148;8.582;2023-05-25T12:30:56;100923.72;;;26.03;31.90
24558;BME280;12726;49.148;8.582;2023-05-25T12:33:41;100918.16;;;25.89;31.35
24558;BME280;12726;49.148;8.582;2023-05-25T12:36:49;100912.69;;;26.03;31.51
24558;BME280;12726;49.148;8.582;2023-05-25T12:39:34;100916.97;;;26.41;31.83
24558;BME280;12726;49.148;8.582;2023-05-25T12:42:22;100914.41;;;26.45;31.90
24558;BME280;12726;49.148;8.582;2023-05-25T12:45:10;100905.00;;;26.46;30.67
24558;BME280;12726;49.148;8.582;2023-05-25T12:47:56;100917.81;;;26.09;32.35
24558;BME280;12726;49.148;8.582;2023-05-25T12:50:55;100920.25;;;25.97;32.04
24558;BME280;12726;49.148;8.582;2023-05-25T12:53:48;100913.00;;;25.31;33.28
24558;BME280;12726;49.148;8.582;2023-05-25T12:56:52;100922.88;;;25.51;33.12
24558;BME280;12726;49.148;8.582;2023-05-25T12:59:38;100919.03;;;25.33;32.58
24558;BME280;12726;49.148;8.582;2023-05-25T13:02:26;100907.78;;;25.30;34.02
24558;BME280;12726;49.148;8.582;2023-05-25T13:05:19;100909.19;;;25.46;34.05
24558;BME280;12726;49.148;8.582;2023-05-25T13:08:05;100918.94;;;25.39;33.38
24558;BME280;12726;49.148;8.582;2023-05-25T13:10:50;100920.31;;;25.60;33.65
24558;BME280;12726;49.148;8.582;2023-05-25T13:13:35;100903.47;;;25.61;33.76
24558;BME280;12726;49.148;8.582;2023-05-25T13:16:21;100907.38;;;25.74;32.70
24558;BME280;12726;49.148;8.582;2023-05-25T13:19:09;100911.97;;;25.27;33.30
24558;BME280;12726;49.148;8.582;2023-05-25T13:21:55;100907.03;;;25.24;33.20
24558;BME280;12726;49.148;8.582;2023-05-25T13:24:40;100907.78;;;25.11;33.35
24558;BME280;12726;49.148;8.582;2023-05-25T13:27:25;100906.13;;;25.10;34.03
24558;BME280;12726;49.148;8.582;2023-05-25T13:30:12;100904.00;;;25.07;33.72
24558;BME280;12726;49.148;8.582;2023-05-25T13:32:57;100900.41;;;25.07;33.75
24558;BME280;12726;49.148;8.582;2023-05-25T13:35:44;100889.59;;;24.91;33.94
24558;BME280;12726;49.148;8.582;2023-05-25T13:38:41;100888.88;;;24.81;35.40
24558;BME280;12726;49.148;8.582;2023-05-25T13:41:26;100897.84;;;24.68;34.77
24558;BME280;12726;49.148;8.582;2023-05-25T13:44:11;100902.25;;;24.69;33.93
24558;BME280;12726;49.148;8.582;2023-05-25T13:46:57;100890.94;;;24.70;34.77
24558;BME280;12726;49.148;8.582;2023-05-25T13:49:42;100891.03;;;24.65;34.93
24558;BME280;12726;49.148;8.582;2023-05-25T13:52:29;100881.06;;;24.16;35.30
24558;BME280;12726;49.148;8.582;2023-05-25T13:55:14;100882.63;;;24.51;35.72
24558;BME280;12726;49.148;8.582;2023-05-25T13:58:00;100881.94;;;24.41;35.63
24558;BME280;12726;49.148;8.582;2023-05-25T14:00:46;100882.75;;;24.41;35.10
24558;BME280;12726;49.148;8.582;2023-05-25T14:03:32;100879.66;;;24.24;35.83
24558;BME280;12726;49.148;8.582;2023-05-25T14:06:17;100884.56;;;24.27;36.21
24558;BME280;12726;49.148;8.582;2023-05-25T14:09:04;100872.00;;;24.21;35.58
24558;BME280;12726;49.148;8.582;2023-05-25T14:11:50;100877.13;;;23.99;36.16
24558;BME280;12726;49.148;8.582;2023-05-25T14:14:36;100881.88;;;23.93;36.81
24558;BME280;12726;49.148;8.582;2023-05-25T14:17:22;100876.94;;;23.90;36.34
24558;BME280;12726;49.148;8.582;2023-05-25T14:20:08;100864.78;;;23.96;36.30
24558;BME280;12726;49.148;8.582;2023-05-25T14:22:54;100865.13;;;23.90;36.14
24558;BME280;12726;49.148;8.582;2023-05-25T14:25:41;100862.97;;;23.87;37.44
24558;BME280;12726;49.148;8.582;2023-05-25T14:28:26;100866.91;;;23.75;36.43
24558;BME280;12726;49.148;8.582;2023-05-25T14:31:11;100860.22;;;23.87;36.01
24558;BME280;12726;49.148;8.582;2023-05-25T14:33:57;100864.16;;;23.75;36.64
24558;BME280;12726;49.148;8.582;2023-05-25T14:36:42;100867.94;;;23.85;36.60
24558;BME280;12726;49.148;8.582;2023-05-25T14:39:27;100864.63;;;23.83;36.30